Time;durP1;ratioP1;P1;durP2;ratioP2;P2;SDS_P1;SDS_P2;PMS_P1;PMS_P2;Temp;Humidity;BMP_temperature;BMP_pressure;BME280_temperature;BME280_humidity;BME280_pressure;Samples;Min_cycle;Max_cycle;Signal;HPM_P1;HPM_P2
2023/07/04 00:01:10;;;;;;;19.02;4.18;;;;;15.50;100713.00;;;;10470470;28;20318;-80
2023/07/04 00:06:17;;;;;;;12.25;3.75;;;;;15.30;100709.00;;;;10506656;28;20328;-78
2023/07/04 00:11:21;;;;;;;13.23;4.50;;;;;15.20;100713.00;;;;10483955;28;20718;-78
2023/07/04 00:16:23;;;;;;;12.30;3.67;;;;;15.20;100714.00;;;;10493061;28;20590;-76
2023/07/04 00:21:26;;;;;;;14.50;3.58;;;;;15.10;100716.00;;;;10512023;28;20562;-81
2023/07/04 00:26:29;;;;;;;15.15;3.75;;;;;15.10;100722.00;;;;10494280;28;20649;-77
2023/07/04 00:31:30;;;;;;;14.18;3.33;;;;;15.00;100722.00;;;;10493933;28;20213;-76
2023/07/04 00:36:34;;;;;;;19.87;3.80;;;;;15.00;100717.00;;;;10509522;28;20227;-78
2023/07/04 00:41:36;;;;;;;24.70;4.13;;;;;14.90;100723.00;;;;10454598;28;20206;-81
2023/07/04 00:46:40;;;;;;;17.00;4.00;;;;;14.90;100723.00;;;;10498068;28;20197;-76
2023/07/04 00:51:45;;;;;;;15.73;3.85;;;;;14.90;100720.00;;;;10474040;28;20252;-80
2023/07/04 00:56:46;;;;;;;15.35;3.95;;;;;14.80;100718.00;;;;10459756;28;20194;-77
2023/07/04 01:01:48;;;;;;;21.17;4.82;;;;;14.80;100722.00;;;;10486784;28;20196;-79
2023/07/04 01:06:57;;;;;;;14.77;4.28;;;;;14.80;100730.00;;;;10514755;28;20529;-79
2023/07/04 01:12:02;;;;;;;19.83;4.47;;;;;14.80;100728.00;;;;10477311;28;20239;-79
2023/07/04 01:17:06;;;;;;;16.17;4.23;;;;;14.80;100733.00;;;;10507987;28;20513;-79
2023/07/04 01:22:31;;;;;;;13.77;3.83;;;;;14.80;100736.00;;;;10467038;28;20212;-79
2023/07/04 01:27:32;;;;;;;12.65;3.97;;;;;14.70;100736.00;;;;10497965;28;20197;-79
2023/07/04 01:32:35;;;;;;;16.20;4.15;;;;;14.70;100746.00;;;;10495930;28;20197;-79
2023/07/04 01:37:36;;;;;;;16.77;4.07;;;;;14.60;100744.00;;;;10485711;28;20224;-79
2023/07/04 01:42:39;;;;;;;20.25;4.25;;;;;14.60;100726.00;;;;10521009;28;20220;-79
2023/07/04 01:47:40;;;;;;;19.23;4.50;;;;;14.50;100737.00;;;;10510102;28;20266;-79
2023/07/04 01:52:43;;;;;;;21.23;5.10;;;;;14.40;100732.00;;;;10495333;28;20555;-79
2023/07/04 01:57:44;;;;;;;19.07;3.63;;;;;14.40;100734.00;;;;10498567;28;20507;-79
2023/07/04 02:02:45;;;;;;;25.10;5.10;;;;;14.40;100729.00;;;;10501889;28;20933;-79
2023/07/04 02:07:46;;;;;;;22.33;4.10;;;;;14.30;100733.00;;;;10469095;28;20205;-79
2023/07/04 02:12:48;;;;;;;14.73;4.67;;;;;14.30;100730.00;;;;10490090;28;20327;-79
2023/07/04 02:17:49;;;;;;;20.03;4.63;;;;;14.30;100736.00;;;;10505798;28;20204;-79
2023/07/04 02:22:51;;;;;;;25.57;4.40;;;;;14.30;100720.00;;;;10487422;28;20213;-79
2023/07/04 02:27:53;;;;;;;15.37;3.87;;;;;14.20;100720.00;;;;10504280;28;20283;-79
2023/07/04 02:32:55;;;;;;;17.97;4.20;;;;;14.20;100720.00;;;;10468252;28;20250;-79
2023/07/04 02:37:57;;;;;;;23.13;4.00;;;;;14.20;100721.00;;;;10468473;28;20261;-79
2023/07/04 02:42:59;;;;;;;24.47;4.90;;;;;14.20;100723.00;;;;10487176;28;20286;-79
2023/07/04 02:48:00;;;;;;;18.67;4.43;;;;;14.20;100717.00;;;;10508897;28;20554;-80
2023/07/04 02:53:03;;;;;;;22.00;4.80;;;;;14.20;100724.00;;;;10480772;28;20219;-79
2023/07/04 02:58:04;;;;;;;18.23;4.33;;;;;14.10;100713.00;;;;10475444;28;20193;-79
2023/07/04 03:03:07;;;;;;;18.60;4.30;;;;;14.10;100712.00;;;;10472590;28;20220;-79
2023/07/04 03:08:09;;;;;;;17.23;4.70;;;;;14.10;100717.00;;;;10484886;28;20707;-80
2023/07/04 03:13:11;;;;;;;17.83;4.50;;;;;14.00;100722.00;;;;10487948;28;20274;-79
2023/07/04 03:18:13;;;;;;;17.13;4.27;;;;;14.00;100717.00;;;;10466375;28;20197;-79
2023/07/04 03:23:17;;;;;;;22.80;4.53;;;;;14.10;100724.00;;;;10478335;28;20220;-78
2023/07/04 03:28:19;;;;;;;19.27;4.83;;;;;14.00;100724.00;;;;10484446;28;20201;-79
2023/07/04 03:33:21;;;;;;;25.83;5.37;;;;;14.00;100729.00;;;;10499518;28;20278;-78
2023/07/04 03:38:22;;;;;;;24.47;4.53;;;;;14.00;100728.00;;;;10484637;28;20623;-79
2023/07/04 03:43:24;;;;;;;19.63;4.20;;;;;13.90;100730.00;;;;10480582;28;20650;-79
2023/07/04 03:48:26;;;;;;;17.57;5.10;;;;;13.90;100730.00;;;;10489846;28;20235;-81
2023/07/04 03:53:27;;;;;;;19.77;4.27;;;;;13.90;100734.00;;;;10489757;28;20189;-78
2023/07/04 03:58:28;;;;;;;25.37;4.80;;;;;14.00;100727.00;;;;10495861;28;20197;-79
2023/07/04 04:03:36;;;;;;;19.87;4.97;;;;;14.00;100732.00;;;;10497935;28;20267;-79
2023/07/04 04:08:38;;;;;;;25.93;4.77;;;;;14.00;100730.00;;;;10507434;28;20567;-79
2023/07/04 04:13:40;;;;;;;16.60;4.40;;;;;14.10;100734.00;;;;10490605;28;20193;-79
2023/07/04 04:18:42;;;;;;;31.20;6.67;;;;;14.20;100737.00;;;;10449779;28;20230;-79
2023/07/04 04:23:43;;;;;;;19.37;5.10;;;;;14.30;100746.00;;;;10506486;28;20209;-79
2023/07/04 04:28:44;;;;;;;22.73;5.70;;;;;14.40;100763.00;;;;10475338;28;20193;-80
2023/07/04 04:33:46;;;;;;;17.57;4.93;;;;;14.50;100757.00;;;;10491974;28;20691;-79
2023/07/04 04:38:49;;;;;;;20.43;4.50;;;;;14.60;100752.00;;;;10491037;28;20197;-79
2023/07/04 04:43:50;;;;;;;18.47;4.70;;;;;14.70;100757.00;;;;10492894;28;20267;-79
2023/07/04 04:48:52;;;;;;;19.70;4.60;;;;;14.80;100769.00;;;;10513048;28;20228;-79
2023/07/04 04:53:53;;;;;;;18.20;4.87;;;;;14.90;100771.00;;;;10472435;28;20227;-79
2023/07/04 04:58:56;;;;;;;21.70;4.43;;;;;15.10;100768.00;;;;10507607;28;20283;-78
2023/07/04 05:03:57;;;;;;;17.75;4.28;;;;;15.30;100771.00;;;;10461501;28;20225;-79
2023/07/04 05:08:58;;;;;;;19.58;3.83;;;;;15.70;100766.00;;;;10464132;28;20216;-78
2023/07/04 05:14:02;;;;;;;17.98;3.80;;;;;15.70;100770.00;;;;10478425;28;20290;-79
2023/07/04 05:19:03;;;;;;;15.15;4.72;;;;;16.20;100776.00;;;;10472895;28;20463;-79
2023/07/04 05:24:04;;;;;;;20.63;4.28;;;;;16.60;100770.00;;;;10503074;28;20231;-79
2023/07/04 05:29:08;;;;;;;18.13;4.53;;;;;17.00;100775.00;;;;10507181;28;20774;-79
2023/07/04 05:34:09;;;;;;;15.43;4.03;;;;;17.30;100770.00;;;;10480808;28;20678;-79
2023/07/04 05:39:10;;;;;;;20.00;5.38;;;;;17.60;100784.00;;;;10493977;28;20208;-78
2023/07/04 05:44:12;;;;;;;18.75;3.78;;;;;18.20;100780.00;;;;10488166;28;20379;-79
2023/07/04 05:49:13;;;;;;;16.85;4.15;;;;;18.50;100790.00;;;;10510683;28;20681;-79
2023/07/04 05:54:14;;;;;;;13.18;4.03;;;;;18.90;100768.00;;;;10512461;28;20203;-79
2023/07/04 05:59:16;;;;;;;11.75;3.83;;;;;19.10;100768.00;;;;10491077;28;20273;-79
2023/07/04 06:04:17;;;;;;;16.88;4.75;;;;;19.30;100777.00;;;;10464706;28;20279;-79
2023/07/04 06:09:20;;;;;;;17.23;4.50;;;;;19.90;100777.00;;;;10495896;28;20202;-78
2023/07/04 06:14:26;;;;;;;14.18;3.58;;;;;20.20;100775.00;;;;10479409;28;20413;-78
2023/07/04 06:19:28;;;;;;;13.90;4.57;;;;;20.50;100782.00;;;;10497461;28;20219;-79
2023/07/04 06:24:29;;;;;;;20.48;4.05;;;;;19.50;100783.00;;;;10495712;28;20217;-79
2023/07/04 06:29:30;;;;;;;14.48;3.38;;;;;20.20;100787.00;;;;10493990;28;20203;-78
2023/07/04 06:34:32;;;;;;;16.10;4.45;;;;;20.70;100795.00;;;;10491139;28;20457;-78
2023/07/04 06:39:33;;;;;;;15.40;3.75;;;;;21.20;100807.00;;;;10505472;28;20201;-79
2023/07/04 06:44:34;;;;;;;13.52;4.80;;;;;21.40;100801.00;;;;10486258;28;20680;-78
2023/07/04 06:49:36;;;;;;;13.52;3.63;;;;;21.80;100794.00;;;;10499120;28;20741;-78
2023/07/04 06:54:37;;;;;;;11.70;3.47;;;;;22.30;100807.00;;;;10500034;28;20239;-79
2023/07/04 06:59:39;;;;;;;16.27;3.90;;;;;22.50;100811.00;;;;10493453;28;20208;-78
2023/07/04 07:04:42;;;;;;;15.15;3.75;;;;;21.30;100809.00;;;;10478945;28;20621;-79
2023/07/04 07:09:44;;;;;;;10.82;3.70;;;;;21.90;100803.00;;;;10483769;28;20236;-78
2023/07/04 07:14:47;;;;;;;11.93;3.90;;;;;22.50;100803.00;;;;10491781;28;20240;-79
2023/07/04 07:19:48;;;;;;;10.98;3.90;;;;;23.10;100814.00;;;;10497849;28;20234;-79
2023/07/04 07:24:49;;;;;;;17.40;4.55;;;;;23.90;100826.00;;;;10462472;28;20231;-79
2023/07/04 07:29:51;;;;;;;18.95;5.03;;;;;24.10;100819.00;;;;10492142;28;20866;-79
2023/07/04 07:34:52;;;;;;;9.90;3.83;;;;;24.10;100827.00;;;;10501243;28;20197;-78
2023/07/04 07:39:54;;;;;;;11.75;3.63;;;;;23.60;100843.00;;;;10490713;28;20193;-80
2023/07/04 07:44:56;;;;;;;9.07;3.35;;;;;24.50;100845.00;;;;10505831;28;20300;-79
2023/07/04 07:49:57;;;;;;;12.20;3.78;;;;;24.90;100838.00;;;;10481993;28;20282;-79
2023/07/04 07:54:58;;;;;;;14.25;3.53;;;;;24.00;100846.00;;;;10497955;28;20193;-78
2023/07/04 07:59:59;;;;;;;10.13;3.35;;;;;24.20;100819.00;;;;10513768;28;20196;-78
2023/07/04 08:05:01;;;;;;;12.45;3.08;;;;;24.90;100822.00;;;;10524146;28;20212;-78
2023/07/04 08:10:02;;;;;;;8.40;3.33;;;;;24.90;100839.00;;;;10527327;28;20197;-77
2023/07/04 08:15:04;;;;;;;13.25;3.90;;;;;24.30;100844.00;;;;10495411;28;20682;-78
2023/07/04 08:20:06;;;;;;;8.07;2.83;;;;;24.80;100843.00;;;;10529564;28;20196;-78
2023/07/04 08:25:08;;;;;;;45.53;7.63;;;;;24.60;100846.00;;;;10518016;28;20225;-78
2023/07/04 08:30:09;;;;;;;18.38;4.22;;;;;24.50;100859.00;;;;10515514;28;20655;-77
2023/07/04 08:35:10;;;;;;;9.95;3.17;;;;;24.30;100828.00;;;;10498379;28;20666;-79
2023/07/04 08:40:18;;;;;;;9.40;3.55;;;;;24.40;100833.00;;;;10495690;28;20258;-78
2023/07/04 08:45:27;;;;;;;9.70;3.08;;;;;25.70;100834.00;;;;10483875;28;20308;-79
2023/07/04 08:50:31;;;;;;;12.13;3.45;;;;;26.10;100825.00;;;;10484869;28;20193;-79
2023/07/04 08:55:37;;;;;;;13.25;3.13;;;;;25.70;100823.00;;;;10527146;28;20193;-79
2023/07/04 09:00:43;;;;;;;10.85;3.60;;;;;26.90;100818.00;;;;10499051;28;20207;-78
2023/07/04 09:06:03;;;;;;;8.85;3.28;;;;;27.80;100843.00;;;;10542198;28;20745;-79
2023/07/04 09:11:10;;;;;;;7.82;2.90;;;;;27.10;100846.00;;;;10527192;28;20291;-79
2023/07/04 09:16:18;;;;;;;8.10;3.05;;;;;27.40;100849.00;;;;10521902;28;20223;-78
2023/07/04 09:21:21;;;;;;;12.55;3.28;;;;;27.30;100852.00;;;;10522408;28;20681;-78
2023/07/04 09:26:26;;;;;;;7.70;3.70;;;;;26.90;100859.00;;;;10520979;28;20216;-79
2023/07/04 09:31:30;;;;;;;30.65;5.22;;;;;28.30;100855.00;;;;10530299;28;20227;-79
2023/07/04 09:36:37;;;;;;;17.48;4.10;;;;;27.10;100863.00;;;;10523626;28;20188;-79
2023/07/04 09:41:40;;;;;;;12.18;3.85;;;;;27.40;100839.00;;;;10515661;28;20260;-79
2023/07/04 09:47:01;;;;;;;9.00;3.53;;;;;27.30;100858.00;;;;10532874;28;20792;-79
2023/07/04 09:52:13;;;;;;;15.25;3.97;;;;;28.20;100849.00;;;;10508739;28;20646;-78
2023/07/04 09:57:27;;;;;;;11.02;4.18;;;;;28.80;100851.00;;;;10525528;28;20731;-79
2023/07/04 10:02:34;;;;;;;8.43;3.63;;;;;29.00;100859.00;;;;10501027;28;20217;-78
2023/07/04 10:07:35;;;;;;;10.68;4.40;;;;;28.30;100858.00;;;;10500270;28;20205;-79
2023/07/04 10:12:43;;;;;;;28.40;6.25;;;;;27.60;100867.00;;;;10505337;28;20215;-78
2023/07/04 10:17:44;;;;;;;22.05;5.07;;;;;28.30;100850.00;;;;10539402;28;20192;-79
2023/07/04 10:22:52;;;;;;;13.00;4.25;;;;;29.70;100851.00;;;;10531993;28;20605;-78
2023/07/04 10:27:57;;;;;;;7.53;3.60;;;;;30.40;100847.00;;;;10515955;28;20561;-79
2023/07/04 10:33:07;;;;;;;10.57;4.22;;;;;31.00;100852.00;;;;10501897;28;20662;-78
2023/07/04 10:38:23;;;;;;;10.52;3.92;;;;;31.00;100852.00;;;;10519681;28;20621;-78
2023/07/04 10:43:28;;;;;;;10.00;3.88;;;;;29.30;100856.00;;;;10510125;28;20212;-78
2023/07/04 10:48:33;;;;;;;10.52;4.03;;;;;30.00;100854.00;;;;10510204;28;20196;-78
2023/07/04 10:53:35;;;;;;;11.10;3.92;;;;;28.90;100849.00;;;;10524143;28;20208;-78
2023/07/04 10:58:42;;;;;;;10.68;4.15;;;;;30.10;100833.00;;;;10536755;28;20200;-78
2023/07/04 11:03:50;;;;;;;11.88;4.43;;;;;31.20;100829.00;;;;10531317;28;20212;-78
2023/07/04 11:08:51;;;;;;;11.18;4.63;;;;;31.60;100844.00;;;;10493515;28;20209;-78
2023/07/04 11:13:56;;;;;;;11.85;4.65;;;;;31.20;100828.00;;;;10536183;28;20269;-79
2023/07/04 11:19:20;;;;;;;11.23;4.63;;;;;31.50;100825.00;;;;10530199;28;20220;-79
2023/07/04 11:24:22;;;;;;;8.50;4.00;;;;;30.50;100828.00;;;;10540754;28;20688;-79
2023/07/04 11:29:24;;;;;;;9.90;4.18;;;;;29.90;100811.00;;;;10515127;28;20208;-79
2023/07/04 11:34:52;;;;;;;8.23;4.47;;;;;29.00;100822.00;;;;10519448;28;20663;-78
2023/07/04 11:39:58;;;;;;;8.75;4.32;;;;;28.10;100815.00;;;;10532534;28;20212;-78
2023/07/04 11:45:07;;;;;;;11.93;4.10;;;;;28.70;100809.00;;;;10529318;28;20616;-77
2023/07/04 11:50:34;;;;;;;9.10;4.72;;;;;29.80;100812.00;;;;10492067;28;20232;-78
2023/07/04 11:55:35;;;;;;;10.40;4.60;;;;;30.30;100802.00;;;;10495998;28;20268;-76
2023/07/04 12:00:37;;;;;;;16.95;5.40;;;;;30.80;100804.00;;;;10519858;28;20666;-78
2023/07/04 12:05:38;;;;;;;8.93;4.68;;;;;30.70;100807.00;;;;10538095;28;20217;-78
2023/07/04 12:10:39;;;;;;;9.65;4.50;;;;;30.80;100791.00;;;;10520712;28;20201;-78
2023/07/04 12:15:49;;;;;;;9.02;4.40;;;;;30.80;100800.00;;;;10526577;28;20221;-79
2023/07/04 12:20:51;;;;;;;9.55;3.85;;;;;29.50;100797.00;;;;10520458;28;20196;-79
2023/07/04 12:25:55;;;;;;;9.60;4.47;;;;;29.30;100788.00;;;;10532209;28;20208;-79
2023/07/04 12:30:59;;;;;;;11.80;3.90;;;;;30.40;100780.00;;;;10524711;28;20193;-79
2023/07/04 12:36:27;;;;;;;7.45;4.07;;;;;30.90;100765.00;;;;10543660;28;20192;-79
2023/07/04 12:41:31;;;;;;;9.65;4.55;;;;;31.10;100764.00;;;;10510550;28;20205;-80
2023/07/04 12:46:36;;;;;;;8.48;4.13;;;;;30.60;100757.00;;;;10537333;28;20232;-79
2023/07/04 12:51:43;;;;;;;9.18;4.13;;;;;30.10;100762.00;;;;10527949;28;20201;-79
2023/07/04 12:56:46;;;;;;;8.07;3.95;;;;;29.60;100754.00;;;;10526535;28;20196;-78
2023/07/04 13:01:48;;;;;;;21.45;5.63;;;;;28.70;100763.00;;;;10519502;28;20204;-77
2023/07/04 13:06:51;;;;;;;9.25;3.72;;;;;28.80;100749.00;;;;10534893;28;20247;-78
2023/07/04 13:11:52;;;;;;;9.50;4.18;;;;;29.20;100740.00;;;;10536938;28;20662;-79
2023/07/04 13:17:10;;;;;;;8.80;3.53;;;;;29.70;100738.00;;;;10537291;28;20192;-78
2023/07/04 13:22:14;;;;;;;8.98;3.92;;;;;29.50;100729.00;;;;10538574;28;20227;-79
2023/07/04 13:27:22;;;;;;;18.38;5.43;;;;;30.10;100730.00;;;;10530313;28;20618;-79
2023/07/04 13:32:35;;;;;;;8.23;3.80;;;;;28.80;100743.00;;;;10507048;28;20196;-79
2023/07/04 13:37:39;;;;;;;8.95;3.78;;;;;27.60;100733.00;;;;10517985;28;20211;-78
2023/07/04 13:43:07;;;;;;;8.38;4.15;;;;;29.30;100712.00;;;;10498448;28;20736;-79
2023/07/04 13:48:11;;;;;;;6.93;3.75;;;;;29.60;100717.00;;;;10508365;28;20197;-78
2023/07/04 13:53:13;;;;;;;8.40;3.95;;;;;29.20;100708.00;;;;10516719;28;20665;-79
2023/07/04 13:58:19;;;;;;;9.32;4.10;;;;;30.20;100703.00;;;;10537273;28;20199;-79
2023/07/04 14:03:22;;;;;;;8.30;4.38;;;;;29.60;100703.00;;;;10490778;28;20305;-79
2023/07/04 14:08:28;;;;;;;7.88;4.45;;;;;29.60;100701.00;;;;10493565;28;20674;-79
2023/07/04 14:13:30;;;;;;;10.57;4.10;;;;;29.70;100709.00;;;;10537600;28;20653;-79
2023/07/04 14:18:32;;;;;;;9.45;4.30;;;;;29.30;100698.00;;;;10526163;28;20192;-78
2023/07/04 14:23:53;;;;;;;9.63;3.95;;;;;27.60;100699.00;;;;10499203;28;20574;-78
2023/07/04 14:28:55;;;;;;;12.60;3.92;;;;;26.00;100710.00;;;;10522526;28;20539;-78
2023/07/04 14:33:57;;;;;;;8.30;4.10;;;;;24.70;100694.00;;;;10527382;28;20607;-79
2023/07/04 14:38:59;;;;;;;10.60;3.92;;;;;24.10;100693.00;;;;10537309;28;20205;-79
2023/07/04 14:44:02;;;;;;;12.50;4.03;;;;;24.00;100686.00;;;;10479222;28;20228;-78
2023/07/04 14:49:04;;;;;;;8.98;3.88;;;;;24.30;100683.00;;;;10519213;28;20200;-79
2023/07/04 14:54:05;;;;;;;6.28;3.85;;;;;25.80;100669.00;;;;10538132;28;20201;-78
2023/07/04 14:59:06;;;;;;;8.73;4.00;;;;;26.80;100665.00;;;;10496875;28;20197;-78
2023/07/04 15:04:07;;;;;;;12.30;3.80;;;;;28.00;100658.00;;;;10479136;28;20220;-79
2023/07/04 15:09:09;;;;;;;10.20;3.60;;;;;29.00;100655.00;;;;10509784;28;20197;-79
2023/07/04 15:14:10;;;;;;;10.43;3.75;;;;;28.60;100650.00;;;;10540266;28;20233;-79
2023/07/04 15:19:12;;;;;;;12.40;4.25;;;;;28.10;100649.00;;;;10505414;28;20212;-78
2023/07/04 15:24:13;;;;;;;8.73;3.50;;;;;28.10;100639.00;;;;10512500;28;20232;-77
2023/07/04 15:29:15;;;;;;;7.40;3.58;;;;;27.60;100636.00;;;;10494714;28;20205;-79
2023/07/04 15:34:17;;;;;;;8.10;3.63;;;;;26.90;100626.00;;;;10501824;28;20197;-78
2023/07/04 15:39:18;;;;;;;6.90;3.47;;;;;26.30;100622.00;;;;10527104;28;20201;-78
2023/07/04 15:44:19;;;;;;;9.45;3.92;;;;;26.10;100611.00;;;;10535641;28;20232;-78
2023/07/04 15:49:21;;;;;;;9.43;3.78;;;;;25.60;100593.00;;;;10543238;28;20690;-77
2023/07/04 15:54:24;;;;;;;12.27;4.15;;;;;25.00;100576.00;;;;10519639;28;20351;-78
2023/07/04 15:59:26;;;;;;;10.98;4.15;;;;;24.40;100587.00;;;;10531248;28;20262;-78
2023/07/04 16:04:27;;;;;;;7.85;3.55;;;;;24.00;100570.00;;;;10529895;28;20212;-78
2023/07/04 16:09:29;;;;;;;8.07;3.50;;;;;23.60;100562.00;;;;10543414;28;20192;-78
2023/07/04 16:14:30;;;;;;;9.70;3.38;;;;;23.50;100556.00;;;;10503791;28;20699;-78
2023/07/04 16:19:31;;;;;;;9.45;3.80;;;;;23.50;100551.00;;;;10499787;28;20680;-78
2023/07/04 16:24:32;;;;;;;8.30;3.17;;;;;23.40;100541.00;;;;10508257;28;20286;-78
2023/07/04 16:29:34;;;;;;;11.32;3.40;;;;;23.20;100549.00;;;;10526706;28;20189;-78
2023/07/04 16:34:35;;;;;;;10.25;3.63;;;;;23.20;100526.00;;;;10543180;28;20242;-78
2023/07/04 16:39:37;;;;;;;10.57;3.47;;;;;23.00;100530.00;;;;10499064;28;20685;-79
2023/07/04 16:44:38;;;;;;;8.93;3.80;;;;;22.70;100517.00;;;;10525135;28;20225;-78
2023/07/04 16:49:39;;;;;;;9.25;4.20;;;;;22.50;100506.00;;;;10516929;28;20205;-80
2023/07/04 16:54:41;;;;;;;12.38;3.58;;;;;22.40;100508.00;;;;10517208;28;20209;-82
2023/07/04 16:59:42;;;;;;;6.35;3.85;;;;;22.40;100501.00;;;;10526364;28;20192;-79
2023/07/04 17:04:45;;;;;;;8.40;3.83;;;;;22.30;100505.00;;;;10526708;28;20312;-79
2023/07/04 17:09:46;;;;;;;8.13;3.83;;;;;22.20;100488.00;;;;10516459;28;20185;-77
2023/07/04 17:14:47;;;;;;;6.93;3.40;;;;;22.00;100485.00;;;;10506471;28;20213;-76
2023/07/04 17:19:48;;;;;;;10.35;3.85;;;;;22.00;100491.00;;;;10462164;28;20220;-77
2023/07/04 17:24:50;;;;;;;8.35;4.15;;;;;21.90;100483.00;;;;10501497;28;20209;-80
2023/07/04 17:30:11;;;;;;;9.57;3.80;;;;;21.80;100469.00;;;;10529148;28;20554;-78
2023/07/04 17:35:16;;;;;;;11.68;4.13;;;;;21.60;100454.00;;;;10537494;28;20197;-78
2023/07/04 17:40:20;;;;;;;8.23;3.65;;;;;21.50;100444.00;;;;10541848;28;20189;-78
2023/07/04 17:45:22;;;;;;;9.73;3.70;;;;;21.30;100448.00;;;;10542797;28;20209;-78
2023/07/04 17:50:24;;;;;;;8.30;3.88;;;;;21.20;100439.00;;;;10496612;28;20213;-78
2023/07/04 17:55:25;;;;;;;17.77;4.50;;;;;21.10;100436.00;;;;10499027;28;20273;-78
2023/07/04 18:00:29;;;;;;;13.82;3.83;;;;;21.00;100427.00;;;;10507779;28;20204;-77
2023/07/04 18:05:30;;;;;;;11.30;3.92;;;;;21.00;100419.00;;;;10505029;28;20304;-78
2023/07/04 18:10:32;;;;;;;6.57;3.90;;;;;20.90;100419.00;;;;10541197;28;20193;-78
2023/07/04 18:15:34;;;;;;;9.63;3.55;;;;;20.90;100411.00;;;;10542451;28;20292;-78
2023/07/04 18:20:35;;;;;;;8.23;3.80;;;;;20.90;100397.00;;;;10540463;28;20654;-78
2023/07/04 18:25:40;;;;;;;9.90;4.13;;;;;21.00;100395.00;;;;10540149;28;20551;-78
2023/07/04 18:30:41;;;;;;;9.60;4.35;;;;;21.10;100384.00;;;;10517877;28;20293;-78
2023/07/04 18:35:42;;;;;;;10.63;4.85;;;;;20.90;100385.00;;;;10502087;28;20565;-78
2023/07/04 18:40:47;;;;;;;10.73;4.28;;;;;20.80;100374.00;;;;10508012;28;20208;-79
2023/07/04 18:45:49;;;;;;;15.25;4.97;;;;;20.60;100365.00;;;;10511718;28;20219;-78
2023/07/04 18:50:51;;;;;;;12.52;4.50;;;;;20.50;100372.00;;;;10512062;28;20220;-78
2023/07/04 18:55:52;;;;;;;10.35;4.53;;;;;20.40;100362.00;;;;10522262;28;20201;-79
2023/07/04 19:00:54;;;;;;;12.95;4.45;;;;;20.30;100361.00;;;;10525428;28;20193;-79
2023/07/04 19:05:58;;;;;;;10.77;4.47;;;;;20.30;100351.00;;;;10493240;28;20275;-79
2023/07/04 19:10:59;;;;;;;9.20;4.38;;;;;20.20;100357.00;;;;10540984;28;20223;-78
2023/07/04 19:16:00;;;;;;;10.32;5.13;;;;;20.10;100356.00;;;;10480833;28;20229;-79
2023/07/04 19:21:03;;;;;;;10.55;4.93;;;;;20.00;100353.00;;;;10542801;28;20204;-78
2023/07/04 19:26:07;;;;;;;9.02;4.72;;;;;19.80;100332.00;;;;10534141;28;20221;-79
2023/07/04 19:31:09;;;;;;;9.93;4.82;;;;;19.70;100335.00;;;;10534399;28;20205;-78
2023/07/04 19:36:10;;;;;;;10.18;4.68;;;;;19.70;100309.00;;;;10505566;28;20254;-78
2023/07/04 19:41:11;;;;;;;7.50;3.95;;;;;19.60;100301.00;;;;10517191;28;20610;-78
2023/07/04 19:46:14;;;;;;;12.30;5.13;;;;;19.50;100295.00;;;;10504823;28;20627;-78
2023/07/04 19:51:21;;;;;;;12.35;4.68;;;;;19.40;100284.00;;;;10486287;28;20201;-78
2023/07/04 19:56:28;;;;;;;8.60;4.78;;;;;19.40;100279.00;;;;10512082;28;20629;-79
2023/07/04 20:01:32;;;;;;;11.38;5.32;;;;;19.30;100265.00;;;;10524805;28;20207;-78
2023/07/04 20:06:34;;;;;;;10.57;5.25;;;;;19.20;100263.00;;;;10548605;28;20306;-79
2023/07/04 20:11:36;;;;;;;11.93;5.25;;;;;19.10;100260.00;;;;10519901;28;20204;-77
2023/07/04 20:16:37;;;;;;;9.15;4.72;;;;;19.10;100259.00;;;;10494362;28;20220;-78
2023/07/04 20:21:39;;;;;;;8.40;5.15;;;;;19.10;100266.00;;;;10496076;28;20233;-78
2023/07/04 20:26:40;;;;;;;9.13;5.00;;;;;19.00;100264.00;;;;10527271;28;20228;-78
2023/07/04 20:31:42;;;;;;;10.20;5.60;;;;;18.90;100253.00;;;;10503259;28;20285;-79
2023/07/04 20:36:44;;;;;;;8.50;5.10;;;;;18.90;100242.00;;;;10498213;28;20204;-78
2023/07/04 20:41:45;;;;;;;11.25;5.35;;;;;18.90;100236.00;;;;10530616;28;20553;-78
2023/07/04 20:46:46;;;;;;;10.32;5.20;;;;;18.80;100219.00;;;;10522994;28;20269;-78
2023/07/04 20:51:49;;;;;;;8.77;4.63;;;;;18.80;100203.00;;;;10513071;28;20208;-79
2023/07/04 20:56:51;;;;;;;9.30;4.97;;;;;18.70;100187.00;;;;10525669;28;20600;-78
2023/07/04 21:01:53;;;;;;;7.53;4.43;;;;;18.70;100183.00;;;;10529656;28;20216;-78
2023/07/04 21:06:57;;;;;;;7.28;4.57;;;;;18.60;100179.00;;;;10537302;28;20216;-78
2023/07/04 21:11:59;;;;;;;8.32;4.32;;;;;18.50;100176.00;;;;10535185;28;20221;-78
2023/07/04 21:17:00;;;;;;;12.20;5.72;;;;;18.50;100157.00;;;;10528610;28;20196;-78
2023/07/04 21:22:02;;;;;;;12.85;5.45;;;;;18.50;100147.00;;;;10501049;28;20201;-78
2023/07/04 21:27:03;;;;;;;10.52;4.88;;;;;18.50;100144.00;;;;10521197;28;20213;-78
2023/07/04 21:32:06;;;;;;;9.63;4.60;;;;;18.50;100145.00;;;;10506500;28;20205;-78
2023/07/04 21:37:09;;;;;;;6.65;4.50;;;;;18.60;100141.00;;;;10525056;28;20662;-79
2023/07/04 21:42:12;;;;;;;7.88;4.47;;;;;18.60;100130.00;;;;10508535;28;20205;-78
2023/07/04 21:47:13;;;;;;;8.02;4.18;;;;;18.60;100131.00;;;;10503358;28;20682;-78
2023/07/04 21:52:15;;;;;;;8.88;4.15;;;;;18.40;100138.00;;;;10501084;28;20182;-83
2023/07/04 21:57:17;;;;;;;6.32;3.22;;;;;17.60;100126.00;;;;10508762;28;20606;-77
2023/07/04 22:02:19;;;;;;;7.15;3.15;;;;;17.00;100113.00;;;;10506155;28;20193;-77
2023/07/04 22:07:20;;;;;;;5.50;3.55;;;;;16.70;100088.00;;;;10517997;28;20255;-75
2023/07/04 22:12:22;;;;;;;5.43;3.83;;;;;16.60;100083.00;;;;10508048;28;20201;-77
2023/07/04 22:17:23;;;;;;;7.90;3.83;;;;;16.40;100076.00;;;;10512616;28;20254;-75
2023/07/04 22:22:25;;;;;;;7.82;3.92;;;;;16.30;100068.00;;;;10532205;28;20200;-77
2023/07/04 22:27:26;;;;;;;6.60;3.20;;;;;16.20;100047.00;;;;10534816;28;20217;-84
2023/07/04 22:32:27;;;;;;;6.50;3.30;;;;;16.10;100051.00;;;;10505931;28;20189;-78
2023/07/04 22:37:29;;;;;;;6.45;3.40;;;;;16.00;100038.00;;;;10518980;28;20212;-87
2023/07/04 22:42:30;;;;;;;5.15;3.38;;;;;16.00;100007.00;;;;10536262;28;20236;-81
2023/07/04 22:47:33;;;;;;;4.40;3.08;;;;;16.00;100014.00;;;;10523233;28;20223;-79
2023/07/04 22:52:34;;;;;;;4.85;3.00;;;;;16.00;100018.00;;;;10527402;28;20596;-79
2023/07/04 22:57:35;;;;;;;5.82;3.20;;;;;16.00;100030.00;;;;10532538;28;20200;-78
2023/07/04 23:02:37;;;;;;;5.15;3.00;;;;;16.00;100031.00;;;;10503664;28;20223;-76
2023/07/04 23:07:38;;;;;;;4.03;2.75;;;;;16.10;100016.00;;;;10515100;28;20236;-78
2023/07/04 23:12:39;;;;;;;5.97;3.73;;;;;16.10;100013.00;;;;10538099;28;20216;-83
2023/07/04 23:17:41;;;;;;;4.63;2.92;;;;;16.10;99990.00;;;;10539295;28;20196;-81
2023/07/04 23:22:43;;;;;;;6.53;3.55;;;;;16.20;99970.00;;;;10549865;28;20196;-74
2023/07/04 23:27:46;;;;;;;6.97;3.40;;;;;16.20;99968.00;;;;10505637;28;20220;-76
2023/07/04 23:32:48;;;;;;;5.13;2.97;;;;;16.20;99956.00;;;;10497140;28;20569;-79
2023/07/04 23:37:49;;;;;;;4.85;3.20;;;;;16.20;99945.00;;;;10526956;28;20239;-78
2023/07/04 23:42:50;;;;;;;5.70;3.50;;;;;16.10;99937.00;;;;10522117;28;20208;-79
2023/07/04 23:47:51;;;;;;;6.30;3.58;;;;;16.00;99898.00;;;;10546810;28;20254;-79
2023/07/04 23:52:53;;;;;;;7.43;2.90;;;;;15.90;99859.00;;;;10516344;28;20201;-74
2023/07/04 23:57:54;;;;;;;6.25;3.15;;;;;15.90;99872.00;;;;10541426;28;20200;-74
